createdAt,value
2022-11-29T00:01:17.332Z,25.63
2022-11-29T00:06:39.783Z,28.27
2022-11-29T00:12:01.569Z,28.98
2022-11-29T00:17:23.361Z,25.13
2022-11-29T00:22:45.130Z,27.35
2022-11-29T00:28:06.916Z,28.25
2022-11-29T00:33:28.739Z,30.45
2022-11-29T00:38:50.826Z,29.35
2022-11-29T00:44:18.368Z,26.35
2022-11-29T00:49:41.848Z,29.25
2022-11-29T00:55:03.821Z,30.98
2022-11-29T01:00:25.667Z,28.30
2022-11-29T01:05:47.650Z,31.25
2022-11-29T01:11:22.139Z,30.42
2022-11-29T01:16:44.036Z,32.17
2022-11-29T01:22:05.887Z,30.10
2022-11-29T01:27:31.511Z,32.17
2022-11-29T01:32:53.299Z,28.80
2022-11-29T01:38:15.085Z,30.30
2022-11-29T01:44:01.086Z,33.50
2022-11-29T01:49:31.669Z,31.95
2022-11-29T01:54:58.088Z,28.65
2022-11-29T02:00:20.212Z,30.35
2022-11-29T02:05:45.304Z,29.83
2022-11-29T02:11:12.895Z,31.17
2022-11-29T02:16:57.956Z,30.40
2022-11-29T02:22:47.345Z,27.70
2022-11-29T02:28:43.021Z,29.63
2022-11-29T02:34:39.018Z,37.03
2022-11-29T02:40:11.323Z,30.08
2022-11-29T02:45:42.116Z,26.35
2022-11-29T02:51:17.602Z,27.05
2022-11-29T02:56:54.830Z,22.07
2022-11-29T03:02:28.972Z,30.80
2022-11-29T03:08:24.368Z,28.27
2022-11-29T03:14:13.772Z,29.57
2022-11-29T03:20:14.406Z,24.95
2022-11-29T03:25:43.955Z,26.95
2022-11-29T03:31:19.509Z,22.55
2022-11-29T03:37:00.988Z,27.53
2022-11-29T03:42:55.134Z,26.48
2022-11-29T03:48:21.995Z,28.15
2022-11-29T03:53:47.351Z,28.30
2022-11-29T03:59:28.373Z,26.02
2022-11-29T04:05:14.351Z,31.92
2022-11-29T04:10:42.729Z,25.70
2022-11-29T04:16:27.000Z,28.88
2022-11-29T04:22:22.935Z,29.63
2022-11-29T04:27:47.426Z,27.30
2022-11-29T04:33:38.278Z,29.30
2022-11-29T04:39:17.056Z,29.15
2022-11-29T04:44:52.650Z,25.88
2022-11-29T04:50:43.105Z,29.90
2022-11-29T04:56:23.440Z,26.88
2022-11-29T05:02:15.979Z,27.75
2022-11-29T05:08:04.921Z,29.13
2022-11-29T05:13:34.644Z,27.17
2022-11-29T05:19:16.710Z,23.17
2022-11-29T05:24:41.139Z,31.27
2022-11-29T05:30:07.412Z,32.97
2022-11-29T05:36:00.775Z,32.55
2022-11-29T05:42:13.390Z,42.22
2022-11-29T05:47:48.110Z,32.80
2022-11-29T05:53:27.416Z,32.15
2022-11-29T05:59:16.184Z,37.95
2022-11-29T06:04:48.489Z,30.73
2022-11-29T06:10:14.240Z,30.20
2022-11-29T06:15:54.654Z,29.00
2022-11-29T06:21:34.022Z,34.60
2022-11-29T06:27:19.300Z,31.05
2022-11-29T06:32:48.094Z,37.45
2022-11-29T06:38:17.806Z,32.17
2022-11-29T06:43:39.822Z,34.75
2022-11-29T06:49:27.314Z,37.03
2022-11-29T06:55:09.942Z,37.72
2022-11-29T07:00:41.926Z,35.28
2022-11-29T07:06:14.346Z,35.75
2022-11-29T07:11:36.570Z,27.38
2022-11-29T07:17:13.624Z,30.58
2022-11-29T07:22:47.210Z,35.50
2022-11-29T07:28:18.255Z,39.20
2022-11-29T07:34:04.877Z,32.67
2022-11-29T07:39:36.772Z,29.63
2022-11-29T07:45:23.510Z,29.45
2022-11-29T07:50:45.624Z,33.05
2022-11-29T07:56:07.673Z,31.20
2022-11-29T08:01:29.529Z,30.23
2022-11-29T08:06:51.490Z,31.92
2022-11-29T08:12:13.371Z,28.65
2022-11-29T08:17:37.418Z,27.05
2022-11-29T08:22:59.919Z,32.55
2022-11-29T08:28:21.853Z,26.75
2022-11-29T08:33:44.268Z,29.10
2022-11-29T08:39:09.252Z,31.02
2022-11-29T08:44:31.580Z,24.80
2022-11-29T08:49:53.377Z,35.30
2022-11-29T08:55:16.205Z,28.77
2022-11-29T09:00:38.740Z,29.58
2022-11-29T09:06:13.077Z,26.88
2022-11-29T09:11:36.179Z,23.88
2022-11-29T09:16:57.987Z,25.73
2022-11-29T09:22:19.894Z,27.02
2022-11-29T09:27:41.748Z,30.08
2022-11-29T09:33:03.768Z,23.83
2022-11-29T09:38:25.609Z,24.73
2022-11-29T09:44:28.959Z,23.95
2022-11-29T09:50:03.360Z,24.70
2022-11-29T09:55:50.486Z,23.20
2022-11-29T10:01:20.524Z,28.85
2022-11-29T10:06:50.045Z,20.33
2022-11-29T10:12:39.544Z,25.58
2022-11-29T10:18:25.593Z,25.38
2022-11-29T10:23:57.802Z,26.27
2022-11-29T10:29:19.628Z,25.55
2022-11-29T10:34:43.759Z,25.02
2022-11-29T10:40:14.607Z,23.67
2022-11-29T10:45:50.079Z,21.70
2022-11-29T10:51:17.437Z,26.98
2022-11-29T10:56:39.671Z,24.88
2022-11-29T11:02:01.898Z,24.88
2022-11-29T11:07:26.204Z,25.27
2022-11-29T11:13:05.426Z,23.27
2022-11-29T11:18:27.749Z,27.45
2022-11-29T11:23:56.500Z,27.55
2022-11-29T11:29:21.867Z,29.55
2022-11-29T11:35:00.901Z,31.38
2022-11-29T11:40:28.403Z,22.70
2022-11-29T11:45:54.522Z,24.98
2022-11-29T11:51:25.246Z,27.08
2022-11-29T11:56:47.120Z,25.75
2022-11-29T12:02:29.829Z,26.02
2022-11-29T12:08:07.780Z,25.88
2022-11-29T12:13:33.738Z,28.08
2022-11-29T12:19:07.163Z,28.20
2022-11-29T12:24:39.841Z,24.92
2022-11-29T12:30:01.935Z,25.00
2022-11-29T12:35:45.185Z,24.02
2022-11-29T12:41:18.760Z,26.85
2022-11-29T12:46:48.186Z,22.63
2022-11-29T12:52:34.652Z,26.42
2022-11-29T12:58:08.642Z,26.63
2022-11-29T13:04:03.565Z,22.02
2022-11-29T13:09:31.271Z,26.35
2022-11-29T13:15:07.023Z,27.15
2022-11-29T13:20:28.847Z,24.97
2022-11-29T13:25:53.936Z,25.50
2022-11-29T13:31:19.139Z,26.67
2022-11-29T13:37:07.679Z,20.08
2022-11-29T13:42:47.858Z,25.70
2022-11-29T13:48:28.451Z,25.02
2022-11-29T13:53:51.213Z,24.90
2022-11-29T13:59:26.975Z,26.90
2022-11-29T14:04:48.819Z,23.85
2022-11-29T14:10:29.081Z,23.83
2022-11-29T14:15:58.558Z,27.33
2022-11-29T14:21:20.440Z,24.52
2022-11-29T14:26:42.256Z,20.20
2022-11-29T14:32:04.104Z,25.27
2022-11-29T14:37:40.229Z,24.70
2022-11-29T14:43:14.079Z,22.20
2022-11-29T14:48:37.730Z,24.75
2022-11-29T14:54:05.488Z,30.05
2022-11-29T14:59:51.178Z,22.30
2022-11-29T15:05:15.985Z,20.80
2022-11-29T15:10:43.082Z,26.25
2022-11-29T15:16:26.148Z,22.33
2022-11-29T15:21:59.818Z,23.38
2022-11-29T15:27:22.637Z,23.95
2022-11-29T15:32:44.473Z,23.60
2022-11-29T15:38:06.265Z,23.83
2022-11-29T15:43:34.847Z,27.67
2022-11-29T15:49:15.935Z,26.00
2022-11-29T15:54:45.883Z,22.30
2022-11-29T16:00:16.830Z,24.17
2022-11-29T16:05:39.209Z,25.60
2022-11-29T16:11:01.504Z,26.33
2022-11-29T16:16:23.841Z,23.30
2022-11-29T16:21:45.742Z,21.23
2022-11-29T16:27:08.106Z,24.02
2022-11-29T16:32:37.316Z,25.35
2022-11-29T16:37:59.486Z,24.90
2022-11-29T16:43:42.511Z,27.23
2022-11-29T16:49:34.669Z,24.25
2022-11-29T16:54:57.022Z,26.52
2022-11-29T17:00:33.066Z,25.42
2022-11-29T17:05:55.097Z,26.08
2022-11-29T17:11:17.373Z,22.20
2022-11-29T17:16:39.207Z,26.50
2022-11-29T17:22:01.053Z,21.55
2022-11-29T17:27:22.878Z,25.75
2022-11-29T17:32:44.658Z,25.63
2022-11-29T17:38:06.494Z,25.88
2022-11-29T17:43:28.270Z,25.08
2022-11-29T17:48:50.662Z,26.30
2022-11-29T17:54:12.793Z,25.05
2022-11-29T17:59:34.601Z,24.25
2022-11-29T18:04:56.350Z,24.80
2022-11-29T18:10:18.127Z,24.00
2022-11-29T18:15:39.936Z,22.90
2022-11-29T18:21:03.240Z,26.67
2022-11-29T18:26:25.951Z,22.75
2022-11-29T18:31:47.717Z,24.05
2022-11-29T18:37:15.336Z,26.60
2022-11-29T18:42:39.782Z,25.67
2022-11-29T18:48:01.680Z,27.95
2022-11-29T18:53:23.506Z,23.27
2022-11-29T18:58:47.720Z,25.83
2022-11-29T19:04:15.489Z,25.17
2022-11-29T19:09:37.434Z,26.92
2022-11-29T19:14:59.206Z,22.70
2022-11-29T19:20:21.108Z,24.65
2022-11-29T19:25:42.961Z,22.55
2022-11-29T19:31:06.004Z,25.05
2022-11-29T19:36:30.154Z,25.30
2022-11-29T19:41:51.958Z,18.90
2022-11-29T19:47:13.741Z,22.25
2022-11-29T19:52:35.513Z,25.35
2022-11-29T19:57:57.322Z,21.83
2022-11-29T20:03:19.098Z,22.17
2022-11-29T20:08:42.348Z,25.48
2022-11-29T20:14:05.613Z,25.45
2022-11-29T20:19:27.475Z,26.00
2022-11-29T20:24:49.292Z,21.02
2022-11-29T20:30:11.795Z,21.40
2022-11-29T20:35:33.851Z,24.10
2022-11-29T20:41:08.269Z,24.60
2022-11-29T20:46:31.053Z,26.20
2022-11-29T20:52:03.006Z,23.75
2022-11-29T20:57:24.866Z,28.08
2022-11-29T21:02:46.688Z,26.17
2022-11-29T21:08:08.718Z,27.67
2022-11-29T21:13:30.771Z,21.48
2022-11-29T21:18:56.862Z,19.23
2022-11-29T21:24:30.856Z,24.20
2022-11-29T21:29:53.178Z,24.48
2022-11-29T21:35:15.891Z,24.20
2022-11-29T21:40:37.672Z,20.17
2022-11-29T21:45:59.456Z,20.75
2022-11-29T21:51:21.266Z,24.08
2022-11-29T21:56:43.149Z,25.95
2022-11-29T22:02:05.090Z,24.02
2022-11-29T22:07:26.988Z,23.63
2022-11-29T22:12:52.382Z,24.73
2022-11-29T22:18:14.492Z,24.13
2022-11-29T22:23:36.266Z,24.00
2022-11-29T22:28:58.027Z,23.17
2022-11-29T22:34:20.215Z,24.10
2022-11-29T22:39:41.987Z,23.08
2022-11-29T22:45:04.101Z,23.73
2022-11-29T22:50:25.931Z,21.63
2022-11-29T22:55:47.735Z,23.77
2022-11-29T23:01:12.728Z,24.67
2022-11-29T23:06:43.216Z,25.50
2022-11-29T23:12:05.131Z,22.48
2022-11-29T23:17:27.204Z,24.67
2022-11-29T23:22:48.983Z,23.67
2022-11-29T23:28:10.791Z,23.73
2022-11-29T23:33:32.750Z,22.40
2022-11-29T23:38:54.499Z,22.67
2022-11-29T23:44:16.340Z,25.08
2022-11-29T23:49:38.124Z,23.48
2022-11-29T23:54:59.947Z,21.92
